createdAt,value
2022-10-30T00:01:58.222Z,5.40
2022-10-30T00:04:25.017Z,5.60
2022-10-30T00:06:51.963Z,5.50
2022-10-30T00:09:18.647Z,5.60
2022-10-30T00:11:45.275Z,5.50
2022-10-30T00:14:13.952Z,5.40
2022-10-30T00:16:40.573Z,5.40
2022-10-30T00:19:07.382Z,5.50
2022-10-30T00:21:34.038Z,5.40
2022-10-30T00:24:00.811Z,5.50
2022-10-30T00:26:28.080Z,5.30
2022-10-30T00:28:55.520Z,5.60
2022-10-30T00:31:22.475Z,5.20
2022-10-30T00:33:50.786Z,5.60
2022-10-30T00:36:17.549Z,5.30
2022-10-30T00:38:44.221Z,5.50
2022-10-30T00:41:16.360Z,5.30
2022-10-30T00:43:43.267Z,5.20
2022-10-30T00:46:25.497Z,5.50
2022-10-30T00:49:13.542Z,5.50
2022-10-30T00:51:42.444Z,5.40
2022-10-30T00:54:10.415Z,5.30
2022-10-30T00:56:37.052Z,5.40
2022-10-30T00:59:07.595Z,5.60
2022-10-30T01:01:37.082Z,5.30
2022-10-30T01:04:04.184Z,5.10
2022-10-30T01:06:32.620Z,5.30
2022-10-30T01:09:00.280Z,5.30
2022-10-30T01:11:27.373Z,5.40
2022-10-30T01:13:54.240Z,5.70
2022-10-30T01:16:51.960Z,5.50
2022-10-30T01:19:42.086Z,5.70
2022-10-30T01:22:14.683Z,5.40
2022-10-30T01:25:26.625Z,5.50
2022-10-30T01:28:06.785Z,5.30
2022-10-30T01:30:54.870Z,5.30
2022-10-30T01:33:32.723Z,5.40
2022-10-30T01:36:07.967Z,5.20
2022-10-30T01:38:54.382Z,5.20
2022-10-30T01:41:21.343Z,5.00
2022-10-30T01:43:53.187Z,5.00
2022-10-30T01:46:31.843Z,4.70
2022-10-30T01:49:20.298Z,4.80
2022-10-30T01:52:06.986Z,4.70
2022-10-30T01:54:53.666Z,4.90
2022-10-30T01:57:40.798Z,4.70
2022-10-30T02:00:11.983Z,4.70
2022-10-30T02:02:45.346Z,4.70
2022-10-30T02:05:20.168Z,4.60
2022-10-30T02:07:47.489Z,4.80
2022-10-30T02:10:14.340Z,4.60
2022-10-30T02:12:41.621Z,4.50
2022-10-30T02:15:09.593Z,4.70
2022-10-30T02:17:37.071Z,4.50
2022-10-30T02:20:06.570Z,4.70
2022-10-30T02:22:33.356Z,4.90
2022-10-30T02:25:00.262Z,4.60
2022-10-30T02:27:26.982Z,4.50
2022-10-30T02:29:53.659Z,5.00
2022-10-30T02:32:20.499Z,4.50
2022-10-30T02:34:47.121Z,4.80
2022-10-30T02:37:14.401Z,4.60
2022-10-30T02:39:41.346Z,4.70
2022-10-30T02:42:08.037Z,4.60
2022-10-30T02:44:34.790Z,4.60
2022-10-30T02:47:01.480Z,4.40
2022-10-30T02:49:28.208Z,4.30
2022-10-30T02:51:54.931Z,4.50
2022-10-30T02:54:21.696Z,4.20
2022-10-30T02:56:48.688Z,4.50
2022-10-30T02:59:15.349Z,4.30
2022-10-30T03:01:42.177Z,4.40
2022-10-30T03:04:09.124Z,4.50
2022-10-30T03:06:35.766Z,4.30
2022-10-30T03:09:02.472Z,4.50
2022-10-30T03:11:29.167Z,4.20
2022-10-30T03:13:55.933Z,4.40
2022-10-30T03:16:23.787Z,4.50
2022-10-30T03:18:51.127Z,4.30
2022-10-30T03:21:19.304Z,4.30
2022-10-30T03:23:46.170Z,4.40
2022-10-30T03:26:12.991Z,4.40
2022-10-30T03:28:46.929Z,4.40
2022-10-30T03:31:15.424Z,4.50
2022-10-30T03:33:42.194Z,4.30
2022-10-30T03:36:09.843Z,4.30
2022-10-30T03:38:37.246Z,4.10
2022-10-30T03:41:04.609Z,4.50
2022-10-30T03:43:31.338Z,4.30
2022-10-30T03:45:58.092Z,4.40
2022-10-30T03:48:26.719Z,4.40
2022-10-30T03:50:54.438Z,4.30
2022-10-30T03:53:21.307Z,4.30
2022-10-30T03:55:47.987Z,4.20
2022-10-30T03:58:14.668Z,4.60
2022-10-30T04:00:42.441Z,4.30
2022-10-30T04:03:09.518Z,4.20
2022-10-30T04:05:37.338Z,4.20
2022-10-30T04:08:07.434Z,4.20
2022-10-30T04:10:35.900Z,4.30
2022-10-30T04:13:06.688Z,4.30
2022-10-30T04:15:34.375Z,4.10
2022-10-30T04:18:01.609Z,4.90
2022-10-30T04:20:28.916Z,3.80
2022-10-30T04:22:56.838Z,3.80
2022-10-30T04:25:23.892Z,4.20
2022-10-30T04:27:52.619Z,4.10
2022-10-30T04:30:23.504Z,4.40
2022-10-30T04:32:54.591Z,4.20
2022-10-30T04:35:23.709Z,10.30
2022-10-30T04:37:54.738Z,5.10
2022-10-30T04:40:22.678Z,8.10
2022-10-30T04:42:53.640Z,15.60
2022-10-30T04:45:20.298Z,5.70
2022-10-30T04:47:47.991Z,4.60
2022-10-30T04:50:14.800Z,4.50
2022-10-30T04:52:41.520Z,3.90
2022-10-30T04:55:08.685Z,4.10
2022-10-30T04:57:36.963Z,4.10
2022-10-30T05:00:10.379Z,3.50
2022-10-30T05:02:37.810Z,4.40
2022-10-30T05:05:05.222Z,3.30
2022-10-30T05:07:31.866Z,3.10
2022-10-30T05:09:58.767Z,3.00
2022-10-30T05:12:25.624Z,2.90
2022-10-30T05:14:53.823Z,3.30
2022-10-30T05:17:21.082Z,3.30
2022-10-30T05:19:48.404Z,3.30
2022-10-30T05:22:15.078Z,3.70
2022-10-30T05:24:42.813Z,2.90
2022-10-30T05:27:09.495Z,2.60
2022-10-30T05:29:36.215Z,3.00
2022-10-30T05:32:03.095Z,3.00
2022-10-30T05:34:45.310Z,2.70
2022-10-30T05:37:12.281Z,2.90
2022-10-30T05:39:39.042Z,2.60
2022-10-30T05:42:13.676Z,2.90
2022-10-30T05:45:02.041Z,2.90
2022-10-30T05:47:30.477Z,2.90
2022-10-30T05:49:57.336Z,2.80
2022-10-30T05:52:25.000Z,3.20
2022-10-30T05:54:51.849Z,2.90
2022-10-30T05:57:29.503Z,3.00
2022-10-30T05:59:56.382Z,2.90
2022-10-30T06:02:23.134Z,3.20
2022-10-30T06:04:51.282Z,3.10
2022-10-30T06:07:18.484Z,2.80
2022-10-30T06:09:45.148Z,3.00
2022-10-30T06:12:23.450Z,2.80
2022-10-30T06:14:57.495Z,2.70
2022-10-30T06:17:24.327Z,2.70
2022-10-30T06:20:14.330Z,2.60
2022-10-30T06:23:00.660Z,2.90
2022-10-30T06:25:40.707Z,2.90
2022-10-30T06:28:14.498Z,3.00
2022-10-30T06:30:42.217Z,2.90
2022-10-30T06:33:09.746Z,2.80
2022-10-30T06:35:41.856Z,2.90
2022-10-30T06:38:10.095Z,3.00
2022-10-30T06:40:36.906Z,2.80
2022-10-30T06:43:21.963Z,2.60
2022-10-30T06:45:54.755Z,2.80
2022-10-30T06:48:22.520Z,2.40
2022-10-30T06:50:59.546Z,2.60
2022-10-30T06:53:26.998Z,2.50
2022-10-30T06:55:59.006Z,2.60
2022-10-30T06:58:44.577Z,2.60
2022-10-30T07:01:30.156Z,2.80
2022-10-30T07:04:10.987Z,2.80
2022-10-30T07:06:37.692Z,3.10
2022-10-30T07:09:04.556Z,2.90
2022-10-30T07:13:02.955Z,2.90
2022-10-30T07:15:51.229Z,2.50
2022-10-30T07:18:24.258Z,2.80
2022-10-30T07:20:58.664Z,2.50
2022-10-30T07:23:26.089Z,2.10
2022-10-30T07:26:03.525Z,2.00
2022-10-30T07:28:36.883Z,1.90
2022-10-30T07:31:49.690Z,1.90
2022-10-30T07:34:34.623Z,1.80
2022-10-30T07:37:39.894Z,1.80
2022-10-30T07:40:12.996Z,1.90
2022-10-30T07:42:59.420Z,2.00
2022-10-30T07:46:02.229Z,1.80
2022-10-30T07:48:47.444Z,2.50
2022-10-30T07:51:27.899Z,2.70
2022-10-30T07:53:55.126Z,2.00
2022-10-30T07:56:23.654Z,2.00
2022-10-30T07:59:08.262Z,1.90
2022-10-30T08:01:41.941Z,2.10
2022-10-30T08:04:27.683Z,1.90
2022-10-30T08:06:58.892Z,2.10
2022-10-30T08:09:25.631Z,1.90
2022-10-30T08:11:52.638Z,1.50
2022-10-30T08:14:19.324Z,2.10
2022-10-30T08:16:46.171Z,1.30
2022-10-30T08:19:12.912Z,1.30
2022-10-30T08:21:40.621Z,1.60
2022-10-30T08:24:10.855Z,1.60
2022-10-30T08:26:38.391Z,1.40
2022-10-30T08:29:05.287Z,1.20
2022-10-30T08:31:32.291Z,1.20
2022-10-30T08:34:01.670Z,1.40
2022-10-30T08:36:36.704Z,1.50
2022-10-30T08:39:04.131Z,1.20
2022-10-30T08:41:48.571Z,1.10
2022-10-30T08:44:15.245Z,1.30
2022-10-30T08:47:04.579Z,2.00
2022-10-30T08:49:31.424Z,2.00
2022-10-30T08:51:58.863Z,12.60
2022-10-30T08:54:25.977Z,4.80
2022-10-30T08:56:54.034Z,5.30
2022-10-30T08:59:21.474Z,4.70
2022-10-30T09:01:51.596Z,2.30
2022-10-30T09:04:18.389Z,2.60
2022-10-30T09:07:06.375Z,2.10
2022-10-30T09:09:53.907Z,1.80
2022-10-30T09:12:22.951Z,2.20
2022-10-30T09:14:50.530Z,3.10
2022-10-30T09:17:17.535Z,1.70
2022-10-30T09:19:45.242Z,1.40
2022-10-30T09:22:15.641Z,2.90
2022-10-30T09:24:42.568Z,1.40
2022-10-30T09:27:27.845Z,1.80
2022-10-30T09:29:57.006Z,3.10
2022-10-30T09:32:28.834Z,2.90
2022-10-30T09:35:08.690Z,1.50
2022-10-30T09:37:38.162Z,1.80
2022-10-30T09:40:08.254Z,1.60
2022-10-30T09:42:43.207Z,2.10
2022-10-30T09:45:34.238Z,3.50
2022-10-30T09:48:04.547Z,5.00
2022-10-30T09:51:12.987Z,4.60
2022-10-30T09:54:08.045Z,2.90
2022-10-30T09:56:44.796Z,1.70
2022-10-30T09:59:18.065Z,1.50
2022-10-30T10:01:49.003Z,2.20
2022-10-30T10:04:29.049Z,1.70
2022-10-30T10:07:25.725Z,2.80
2022-10-30T10:09:59.880Z,1.90
2022-10-30T10:12:50.390Z,1.90
2022-10-30T10:15:33.206Z,2.20
2022-10-30T10:18:01.676Z,2.70
2022-10-30T10:20:40.601Z,2.60
2022-10-30T10:23:32.987Z,2.50
2022-10-30T10:26:00.807Z,1.90
2022-10-30T10:29:01.019Z,2.10
2022-10-30T10:31:32.209Z,1.70
2022-10-30T10:34:17.531Z,1.30
2022-10-30T10:37:09.581Z,1.30
2022-10-30T10:39:45.701Z,1.30
2022-10-30T10:42:19.765Z,1.60
2022-10-30T11:27:30.892Z,1.70
2022-10-30T11:29:59.189Z,3.00
2022-10-30T11:32:30.366Z,2.80
2022-10-30T11:35:17.773Z,1.60
2022-10-30T11:37:45.623Z,3.50
2022-10-30T11:40:12.251Z,2.40
2022-10-30T11:43:05.850Z,1.80
2022-10-30T11:45:35.062Z,2.00
2022-10-30T11:48:03.432Z,2.20
2022-10-30T11:50:31.912Z,4.00
2022-10-30T11:53:03.548Z,3.50
2022-10-30T11:55:35.724Z,2.50
2022-10-30T12:00:31.535Z,2.30
2022-10-30T12:03:03.517Z,2.10
2022-10-30T12:05:37.663Z,3.40
2022-10-30T12:08:07.350Z,2.50
2022-10-30T12:10:55.481Z,2.70
2022-10-30T12:13:23.070Z,2.40
2022-10-30T12:16:13.182Z,2.00
2022-10-30T12:18:39.868Z,2.00
2022-10-30T12:21:06.495Z,1.90
2022-10-30T12:23:33.424Z,1.80
2022-10-30T12:26:09.784Z,2.30
2022-10-30T12:28:36.587Z,2.30
2022-10-30T12:31:17.548Z,4.20
2022-10-30T12:33:46.268Z,2.60
2022-10-30T12:36:18.086Z,1.70
2022-10-30T12:39:02.784Z,1.40
2022-10-30T12:41:31.776Z,1.80
2022-10-30T12:44:09.436Z,1.50
2022-10-30T12:46:38.994Z,1.50
2022-10-30T12:49:14.550Z,1.70
2022-10-30T12:51:45.811Z,2.30
2022-10-30T12:54:19.382Z,1.80
2022-10-30T12:56:46.864Z,1.50
2022-10-30T12:59:26.271Z,1.90
2022-10-30T13:01:59.996Z,2.10
2022-10-30T13:04:34.478Z,1.60
2022-10-30T13:07:33.478Z,2.00
2022-10-30T13:10:16.003Z,2.10
2022-10-30T13:12:44.099Z,2.00
2022-10-30T13:15:21.634Z,1.90
2022-10-30T13:17:49.724Z,1.70
2022-10-30T13:20:17.186Z,2.00
2022-10-30T13:22:51.602Z,1.40
2022-10-30T13:25:22.530Z,2.10
2022-10-30T13:27:57.843Z,1.60
2022-10-30T13:30:27.639Z,1.50
2022-10-30T13:32:57.769Z,1.80
2022-10-30T13:36:03.499Z,1.60
2022-10-30T13:38:51.581Z,1.60
2022-10-30T13:41:37.499Z,1.70
2022-10-30T13:44:10.883Z,1.50
2022-10-30T13:47:16.562Z,1.50
2022-10-30T13:50:11.582Z,1.30
2022-10-30T13:52:38.863Z,1.60
2022-10-30T13:55:17.846Z,1.40
2022-10-30T13:57:50.638Z,1.80
2022-10-30T14:00:32.474Z,1.90
2022-10-30T14:03:04.513Z,2.00
2022-10-30T14:05:45.786Z,1.80
2022-10-30T14:08:21.655Z,1.70
2022-10-30T14:10:49.668Z,2.00
2022-10-30T14:13:29.203Z,2.70
2022-10-30T14:16:06.271Z,2.40
2022-10-30T14:18:43.255Z,3.00
2022-10-30T14:21:35.266Z,2.80
2022-10-30T14:24:03.888Z,3.60
2022-10-30T14:26:30.499Z,3.90
2022-10-30T14:28:57.222Z,4.00
2022-10-30T14:31:36.606Z,3.60
2022-10-30T14:34:03.340Z,3.00
2022-10-30T14:36:39.408Z,5.60
2022-10-30T14:39:09.077Z,6.40
2022-10-30T14:41:49.039Z,5.00
2022-10-30T14:44:24.667Z,3.50
2022-10-30T14:47:01.949Z,3.30
2022-10-30T14:49:36.749Z,3.00
2022-10-30T14:52:35.998Z,2.70
2022-10-30T14:55:20.910Z,3.60
2022-10-30T14:57:52.312Z,4.60
2022-10-30T15:00:22.112Z,10.60
2022-10-30T15:03:09.170Z,6.00
2022-10-30T15:05:49.476Z,5.60
2022-10-30T15:08:34.523Z,10.10
2022-10-30T15:11:21.298Z,6.60
2022-10-30T15:13:59.170Z,5.50
2022-10-30T15:16:27.362Z,4.70
2022-10-30T15:19:03.063Z,3.30
2022-10-30T15:21:31.179Z,3.70
2022-10-30T15:23:58.067Z,3.60
2022-10-30T15:26:32.080Z,3.90
2022-10-30T15:28:58.747Z,4.60
2022-10-30T15:31:26.785Z,5.20
2022-10-30T15:33:57.796Z,6.50
2022-10-30T15:36:40.747Z,11.00
2022-10-30T15:39:11.591Z,12.50
2022-10-30T15:41:57.664Z,10.90
2022-10-30T15:44:29.032Z,10.80
2022-10-30T15:46:56.682Z,9.60
2022-10-30T15:49:33.449Z,18.00
2022-10-30T15:52:04.486Z,49.40
2022-10-30T15:54:32.306Z,69.60
2022-10-30T15:57:36.643Z,108.10
2022-10-30T15:59:50.915Z,22.20
2022-10-30T16:02:21.401Z,10.30
2022-10-30T16:04:48.424Z,17.40
2022-10-30T16:07:22.406Z,31.40
2022-10-30T16:09:55.891Z,16.20
2022-10-30T16:14:53.638Z,6.10
2022-10-30T16:17:20.299Z,8.50
2022-10-30T16:19:49.194Z,7.90
2022-10-30T16:22:23.798Z,8.00
2022-10-30T16:24:50.567Z,6.70
2022-10-30T16:27:19.086Z,6.20
2022-10-30T16:29:50.673Z,13.70
2022-10-30T16:32:21.513Z,6.20
2022-10-30T16:34:48.269Z,11.90
2022-10-30T16:37:21.210Z,5.00
2022-10-30T16:39:48.514Z,6.90
2022-10-30T16:42:25.369Z,5.40
2022-10-30T16:45:03.576Z,6.00
2022-10-30T16:47:30.195Z,6.00
2022-10-30T16:49:58.169Z,7.00
2022-10-30T16:52:31.506Z,9.80
2022-10-30T16:55:00.766Z,6.00
2022-10-30T16:57:31.664Z,4.40
2022-10-30T16:59:59.264Z,8.50
2022-10-30T17:02:32.213Z,11.30
2022-10-30T17:05:10.945Z,7.20
2022-10-30T17:07:38.485Z,7.70
2022-10-30T17:10:38.026Z,7.40
2022-10-30T17:13:26.410Z,5.60
2022-10-30T17:15:53.191Z,5.00
2022-10-30T17:18:21.534Z,10.40
2022-10-30T17:21:06.648Z,5.00
2022-10-30T17:23:33.534Z,3.40
2022-10-30T17:26:11.440Z,3.70
2022-10-30T17:28:38.340Z,3.80
2022-10-30T17:31:42.046Z,4.10
2022-10-30T17:34:15.760Z,3.90
2022-10-30T17:39:09.072Z,4.90
2022-10-30T17:41:36.174Z,4.00
2022-10-30T17:44:02.924Z,4.10
2022-10-30T17:46:29.658Z,4.40
2022-10-30T17:48:57.892Z,4.60
2022-10-30T17:51:24.731Z,3.40
2022-10-30T17:53:51.468Z,4.00
2022-10-30T17:56:18.237Z,4.50
2022-10-30T17:58:44.969Z,3.00
2022-10-30T18:01:14.364Z,2.50
2022-10-30T18:03:41.633Z,2.60
2022-10-30T18:06:11.190Z,3.90
2022-10-30T18:08:38.490Z,3.10
2022-10-30T18:11:05.843Z,2.60
2022-10-30T18:13:33.018Z,2.40
2022-10-30T18:16:00.296Z,2.60
2022-10-30T18:18:26.924Z,2.30
2022-10-30T18:20:53.582Z,2.80
2022-10-30T18:26:19.818Z,3.40
2022-10-30T18:28:47.139Z,3.40
2022-10-30T18:31:18.668Z,2.50
2022-10-30T18:33:45.499Z,2.50
2022-10-30T18:36:13.383Z,2.30
2022-10-30T18:38:40.103Z,3.90
2022-10-30T18:41:15.671Z,3.00
2022-10-30T18:43:45.700Z,2.70
2022-10-30T18:46:13.760Z,2.10
2022-10-30T18:48:40.536Z,2.00
2022-10-30T18:51:12.666Z,2.30
2022-10-30T18:53:39.514Z,2.70
2022-10-30T18:56:09.599Z,2.40
2022-10-30T18:58:36.323Z,2.20
2022-10-30T19:01:12.242Z,2.50
2022-10-30T19:03:39.587Z,2.40
2022-10-30T19:06:09.996Z,2.20
2022-10-30T19:08:36.640Z,2.30
2022-10-30T19:11:03.521Z,2.60
2022-10-30T19:13:30.448Z,2.60
2022-10-30T19:16:00.514Z,2.30
2022-10-30T19:18:29.062Z,2.40
2022-10-30T19:21:04.420Z,2.50
2022-10-30T19:23:31.627Z,2.50
2022-10-30T19:25:58.389Z,2.20
2022-10-30T19:31:15.619Z,3.00
2022-10-30T19:33:42.732Z,2.50
2022-10-30T19:36:34.038Z,2.70
2022-10-30T19:39:07.597Z,2.60
2022-10-30T19:41:36.344Z,2.30
2022-10-30T19:44:03.124Z,2.30
2022-10-30T19:46:29.753Z,2.50
2022-10-30T19:48:58.231Z,3.50
2022-10-30T19:51:27.227Z,3.30
2022-10-30T19:53:55.134Z,3.10
2022-10-30T19:56:21.987Z,2.90
2022-10-30T19:58:48.901Z,3.10
2022-10-30T20:01:16.006Z,3.30
2022-10-30T20:03:43.002Z,3.00
2022-10-30T20:06:13.131Z,2.60
2022-10-30T20:08:40.270Z,3.20
2022-10-30T20:11:06.979Z,2.40
2022-10-30T20:13:34.036Z,2.40
2022-10-30T20:16:02.498Z,2.20
2022-10-30T20:18:31.547Z,2.10
2022-10-30T20:21:03.141Z,2.20
2022-10-30T20:23:29.795Z,2.00
2022-10-30T20:26:07.210Z,2.20
2022-10-30T20:28:38.287Z,1.90
2022-10-30T20:31:07.138Z,2.10
2022-10-30T20:33:34.911Z,1.70
2022-10-30T20:36:01.705Z,2.00
2022-10-30T20:38:30.581Z,1.90
2022-10-30T20:40:57.963Z,1.90
2022-10-30T20:43:28.217Z,1.80
2022-10-30T20:45:55.226Z,1.70
2022-10-30T20:48:22.003Z,1.80
2022-10-30T20:50:50.823Z,2.20
2022-10-30T20:53:17.754Z,2.00
2022-10-30T20:55:44.936Z,1.80
2022-10-30T20:58:11.770Z,1.70
2022-10-30T21:00:38.475Z,1.90
2022-10-30T21:03:05.324Z,1.90
2022-10-30T21:05:43.884Z,1.90
2022-10-30T21:08:11.721Z,2.00
2022-10-30T21:10:38.690Z,2.10
2022-10-30T21:13:08.870Z,2.30
2022-10-30T21:15:44.497Z,2.80
2022-10-30T21:18:12.900Z,2.60
2022-10-30T21:20:41.022Z,2.30
2022-10-30T21:23:07.872Z,2.50
2022-10-30T21:25:34.594Z,2.30
2022-10-30T21:28:01.500Z,2.50
2022-10-30T21:30:28.774Z,2.00
2022-10-30T21:32:55.491Z,2.20
2022-10-30T21:35:22.264Z,1.90
2022-10-30T21:37:49.276Z,1.90
2022-10-30T21:40:16.100Z,2.40
2022-10-30T21:42:42.874Z,2.00
2022-10-30T21:45:09.921Z,2.00
2022-10-30T21:47:36.735Z,2.00
2022-10-30T21:50:07.650Z,2.10
2022-10-30T21:52:35.933Z,1.90
2022-10-30T21:55:02.781Z,1.80
2022-10-30T21:57:29.820Z,1.90
2022-10-30T21:59:58.791Z,1.90
2022-10-30T22:02:31.162Z,1.90
2022-10-30T22:04:57.841Z,3.00
2022-10-30T22:07:24.542Z,2.70
2022-10-30T22:09:51.294Z,3.00
2022-10-30T22:12:18.022Z,2.50
2022-10-30T22:14:44.900Z,1.70
2022-10-30T22:17:12.830Z,1.90
2022-10-30T22:19:39.556Z,2.10
2022-10-30T22:22:07.101Z,1.80
2022-10-30T22:24:33.742Z,1.80
2022-10-30T22:27:00.494Z,1.90
2022-10-30T22:29:27.172Z,2.10
2022-10-30T22:31:54.017Z,1.90
2022-10-30T22:34:20.670Z,2.30
2022-10-30T22:36:47.330Z,2.20
2022-10-30T22:39:14.850Z,2.10
2022-10-30T22:41:41.773Z,2.10
2022-10-30T22:44:11.631Z,1.90
2022-10-30T22:46:38.375Z,1.90
2022-10-30T22:49:05.172Z,2.30
2022-10-30T22:51:32.698Z,2.30
2022-10-30T22:54:00.914Z,2.00
2022-10-30T22:56:29.639Z,2.20
2022-10-30T22:58:56.709Z,1.80
2022-10-30T23:01:25.251Z,1.90
2022-10-30T23:03:52.844Z,2.00
2022-10-30T23:06:19.544Z,1.60
2022-10-30T23:08:46.315Z,2.10
2022-10-30T23:11:13.044Z,1.90
2022-10-30T23:13:40.549Z,1.60
2022-10-30T23:16:09.134Z,2.10
2022-10-30T23:18:35.747Z,1.70
2022-10-30T23:21:07.879Z,1.80
2022-10-30T23:23:38.239Z,1.80
2022-10-30T23:26:06.819Z,1.70
2022-10-30T23:28:33.581Z,1.70
2022-10-30T23:31:00.216Z,1.60
2022-10-30T23:33:26.836Z,1.80
2022-10-30T23:36:00.906Z,1.70
2022-10-30T23:38:27.796Z,1.80
2022-10-30T23:40:54.490Z,1.70
2022-10-30T23:43:21.355Z,1.60
2022-10-30T23:45:47.982Z,1.70
2022-10-30T23:48:14.634Z,1.60
2022-10-30T23:50:41.335Z,1.70
2022-10-30T23:53:08.049Z,1.90
2022-10-30T23:55:34.747Z,1.90
2022-10-30T23:58:01.818Z,1.90
